createdAt,value
2022-09-12T00:01:28.663Z,101750.91
2022-09-12T00:04:00.235Z,101747.38
2022-09-12T00:06:31.083Z,101740.34
2022-09-12T00:09:03.022Z,101748.31
2022-09-12T00:11:31.249Z,101744.75
2022-09-12T00:14:01.980Z,101743.88
2022-09-12T00:16:33.150Z,101740.34
2022-09-12T00:19:02.273Z,101741.25
2022-09-12T00:21:31.150Z,101738.59
2022-09-12T00:24:00.718Z,101740.38
2022-09-12T00:26:28.839Z,101742.13
2022-09-12T00:28:57.009Z,101733.34
2022-09-12T00:31:27.674Z,101727.19
2022-09-12T00:34:00.663Z,101725.47
2022-09-12T00:36:32.359Z,101719.28
2022-09-12T00:39:03.030Z,101728.97
2022-09-12T00:41:34.287Z,101724.56
2022-09-12T00:44:05.669Z,101725.47
2022-09-12T00:46:39.855Z,101726.34
2022-09-12T00:49:15.547Z,101726.34
2022-09-12T00:51:56.642Z,101717.56
2022-09-12T00:54:31.865Z,101715.78
2022-09-12T00:57:05.870Z,101714.03
2022-09-12T00:59:39.749Z,101715.81
2022-09-12T01:02:08.745Z,101706.13
2022-09-12T01:04:39.945Z,101714.06
2022-09-12T01:07:09.859Z,101708.78
2022-09-12T01:09:41.058Z,101709.66
2022-09-12T01:12:09.944Z,101705.28
2022-09-12T01:14:38.756Z,101706.16
2022-09-12T01:17:06.968Z,101705.28
2022-09-12T01:20:18.307Z,101701.75
2022-09-12T01:23:11.067Z,101694.72
2022-09-12T01:26:02.039Z,101700.88
2022-09-12T01:29:00.780Z,101691.22
2022-09-12T01:31:37.833Z,101693.88
2022-09-12T01:34:18.424Z,101693.84
2022-09-12T01:36:57.550Z,101691.22
2022-09-12T01:39:34.143Z,101692.13
2022-09-12T01:42:12.258Z,101686.81
2022-09-12T01:44:49.537Z,101690.34
2022-09-12T01:47:25.549Z,101689.47
2022-09-12T01:50:02.082Z,101693.88
2022-09-12T01:52:38.173Z,101683.34
2022-09-12T01:55:12.894Z,101681.56
2022-09-12T01:57:45.989Z,101680.69
2022-09-12T02:00:15.422Z,101674.53
2022-09-12T02:02:52.904Z,101677.19
2022-09-12T02:05:27.714Z,101674.53
2022-09-12T02:08:02.834Z,101665.75
2022-09-12T02:10:35.517Z,101667.50
2022-09-12T02:13:10.666Z,101670.16
2022-09-12T02:15:43.143Z,101668.38
2022-09-12T02:18:16.018Z,101665.75
2022-09-12T02:20:49.013Z,101666.66
2022-09-12T02:23:23.729Z,101656.09
2022-09-12T02:25:56.233Z,101661.38
2022-09-12T02:28:29.305Z,101652.56
2022-09-12T02:31:07.165Z,101654.34
2022-09-12T02:33:49.208Z,101652.56
2022-09-12T02:36:30.867Z,101657.00
2022-09-12T02:39:00.182Z,101656.09
2022-09-12T02:41:28.451Z,101651.72
2022-09-12T02:43:56.956Z,101652.59
2022-09-12T02:46:30.779Z,101650.84
2022-09-12T02:49:00.360Z,101650.84
2022-09-12T02:51:28.913Z,101650.84
2022-09-12T02:53:57.243Z,101646.44
2022-09-12T02:56:28.831Z,101644.69
2022-09-12T02:59:00.649Z,101635.88
2022-09-12T03:01:51.195Z,101638.53
2022-09-12T03:04:48.899Z,101636.78
2022-09-12T03:07:31.526Z,101635.00
2022-09-12T03:10:10.394Z,101633.25
2022-09-12T03:12:49.622Z,101636.75
2022-09-12T03:15:39.067Z,101633.28
2022-09-12T03:18:21.434Z,101631.50
2022-09-12T03:21:01.036Z,101628.88
2022-09-12T03:23:38.040Z,101634.13
2022-09-12T03:26:11.890Z,101623.59
2022-09-12T03:28:41.672Z,101628.00
2022-09-12T03:31:20.937Z,101635.88
2022-09-12T03:33:49.173Z,101632.34
2022-09-12T03:36:24.091Z,101636.75
2022-09-12T03:38:52.485Z,101629.72
2022-09-12T03:41:21.127Z,101624.47
2022-09-12T03:43:49.672Z,101625.31
2022-09-12T03:46:17.707Z,101622.69
2022-09-12T03:48:45.917Z,101624.47
2022-09-12T03:51:14.048Z,101624.47
2022-09-12T03:53:43.535Z,101620.94
2022-09-12T03:56:13.303Z,101620.09
2022-09-12T03:58:42.568Z,101624.50
2022-09-12T04:01:12.877Z,101616.56
2022-09-12T04:03:41.626Z,101618.31
2022-09-12T04:06:11.658Z,101622.75
2022-09-12T04:08:40.282Z,101624.47
2022-09-12T04:11:12.435Z,101628.88
2022-09-12T04:13:42.480Z,101620.97
2022-09-12T04:16:12.051Z,101620.97
2022-09-12T04:18:40.371Z,101623.59
2022-09-12T04:21:11.422Z,101608.66
2022-09-12T04:23:39.496Z,101614.81
2022-09-12T04:26:10.011Z,101609.53
2022-09-12T04:28:39.487Z,101618.31
2022-09-12T04:31:09.970Z,101613.06
2022-09-12T04:33:38.273Z,101610.41
2022-09-12T04:36:08.980Z,101604.28
2022-09-12T04:38:38.364Z,101607.78
2022-09-12T04:41:14.226Z,101606.03
2022-09-12T04:43:42.574Z,101606.91
2022-09-12T04:46:12.604Z,101602.50
2022-09-12T04:48:40.876Z,101596.34
2022-09-12T04:51:11.141Z,101599.88
2022-09-12T04:53:39.651Z,101601.63
2022-09-12T04:56:10.936Z,101602.50
2022-09-12T04:58:40.385Z,101606.88
2022-09-12T05:01:10.727Z,101606.88
2022-09-12T05:03:39.594Z,101607.75
2022-09-12T05:06:09.724Z,101606.88
2022-09-12T05:08:38.278Z,101608.63
2022-09-12T05:11:08.147Z,101613.00
2022-09-12T05:13:36.833Z,101609.47
2022-09-12T05:16:08.787Z,101609.44
2022-09-12T05:18:38.276Z,101600.59
2022-09-12T05:21:09.291Z,101607.63
2022-09-12T05:23:37.855Z,101597.88
2022-09-12T05:26:08.430Z,101602.22
2022-09-12T05:28:40.236Z,101597.75
2022-09-12T05:31:12.779Z,101602.13
2022-09-12T05:33:44.942Z,101593.31
2022-09-12T05:36:18.204Z,101599.38
2022-09-12T05:38:47.306Z,101601.06
2022-09-12T05:41:20.846Z,101604.50
2022-09-12T05:43:54.580Z,101605.34
2022-09-12T05:46:26.824Z,101599.13
2022-09-12T05:48:56.876Z,101602.53
2022-09-12T05:51:28.143Z,101604.28
2022-09-12T05:53:59.216Z,101605.97
2022-09-12T05:56:29.726Z,101611.16
2022-09-12T05:59:00.015Z,101607.56
2022-09-12T06:01:31.310Z,101611.94
2022-09-12T06:04:01.813Z,101617.16
2022-09-12T06:06:32.246Z,101611.84
2022-09-12T06:09:02.945Z,101614.44
2022-09-12T06:11:33.229Z,101614.47
2022-09-12T06:14:02.676Z,101615.31
2022-09-12T06:16:34.969Z,101611.72
2022-09-12T06:19:06.620Z,101612.59
2022-09-12T06:21:35.518Z,101614.31
2022-09-12T06:24:03.947Z,101612.50
2022-09-12T06:26:32.299Z,101613.34
2022-09-12T06:29:02.199Z,101607.09
2022-09-12T06:31:34.939Z,101607.88
2022-09-12T06:34:06.216Z,101603.38
2022-09-12T06:36:38.244Z,101604.19
2022-09-12T06:39:09.745Z,101602.34
2022-09-12T06:41:42.990Z,101595.16
2022-09-12T06:44:15.530Z,101593.28
2022-09-12T06:46:45.230Z,101587.84
2022-09-12T06:49:14.160Z,101593.88
2022-09-12T06:51:43.065Z,101591.13
2022-09-12T06:54:18.258Z,101596.34
2022-09-12T06:56:46.447Z,101588.34
2022-09-12T06:59:14.716Z,101591.81
2022-09-12T07:01:44.297Z,101598.78
2022-09-12T07:04:12.864Z,101593.38
2022-09-12T07:06:44.557Z,101601.25
2022-09-12T07:09:16.273Z,101603.84
2022-09-12T07:11:46.252Z,101601.13
2022-09-12T07:14:15.731Z,101602.81
2022-09-12T07:16:45.425Z,101599.16
2022-09-12T07:19:13.580Z,101592.91
2022-09-12T07:21:42.152Z,101592.81
2022-09-12T07:24:11.488Z,101588.22
2022-09-12T07:26:42.206Z,101594.28
2022-09-12T07:32:07.578Z,101601.91
2022-09-12T07:34:36.441Z,101598.22
2022-09-12T07:37:04.680Z,101595.31
2022-09-12T07:39:32.818Z,101588.91
2022-09-12T07:42:01.441Z,101585.16
2022-09-12T07:44:29.562Z,101590.25
2022-09-12T07:46:57.677Z,101586.50
2022-09-12T07:49:27.762Z,101581.84
2022-09-12T07:51:55.833Z,101581.59
2022-09-12T07:54:24.260Z,101590.31
2022-09-12T07:56:52.483Z,101579.63
2022-09-12T07:59:35.659Z,101585.59
2022-09-12T08:02:17.174Z,101589.75
2022-09-12T08:04:48.479Z,101592.19
2022-09-12T08:07:18.247Z,101584.81
2022-09-12T08:09:46.426Z,101589.00
2022-09-12T08:12:15.110Z,101589.75
2022-09-12T08:14:43.199Z,101593.28
2022-09-12T08:17:11.298Z,101596.72
2022-09-12T08:19:39.427Z,101587.69
2022-09-12T08:22:09.787Z,101590.16
2022-09-12T08:24:39.135Z,101589.09
2022-09-12T08:27:07.558Z,101587.06
2022-09-12T08:29:35.639Z,101583.19
2022-09-12T08:32:04.666Z,101584.59
2022-09-12T08:34:32.762Z,101588.53
2022-09-12T08:37:00.939Z,101587.13
2022-09-12T08:39:32.656Z,101578.81
2022-09-12T08:42:04.033Z,101580.28
2022-09-12T08:45:17.502Z,101579.88
2022-09-12T08:47:48.219Z,101575.97
2022-09-12T08:50:21.131Z,101573.81
2022-09-12T08:52:58.478Z,101582.34
2022-09-12T08:55:35.039Z,101583.88
2022-09-12T08:58:12.063Z,101575.72
2022-09-12T09:00:55.076Z,101578.41
2022-09-12T09:04:20.577Z,101581.47
2022-09-12T09:07:34.530Z,101584.44
2022-09-12T09:10:19.474Z,101579.97
2022-09-12T09:13:00.796Z,101584.63
2022-09-12T09:15:51.410Z,101574.16
2022-09-12T09:18:24.600Z,101572.34
2022-09-12T09:20:57.600Z,101573.84
2022-09-12T09:23:30.814Z,101578.53
2022-09-12T09:26:07.172Z,101584.84
2022-09-12T09:28:43.477Z,101577.31
2022-09-12T09:31:17.140Z,101578.41
2022-09-12T09:33:49.275Z,101561.69
2022-09-12T09:36:23.932Z,101558.63
2022-09-12T09:39:00.955Z,101554.88
2022-09-12T09:41:48.301Z,101557.59
2022-09-12T09:44:18.179Z,101548.88
2022-09-12T09:46:46.329Z,101547.41
2022-09-12T09:49:15.500Z,101547.44
2022-09-12T09:51:44.360Z,101544.78
2022-09-12T09:54:21.320Z,101556.69
2022-09-12T09:56:49.475Z,101540.19
2022-09-12T09:59:21.780Z,101546.66
2022-09-12T10:01:54.830Z,101534.22
2022-09-12T10:04:26.011Z,101530.84
2022-09-12T10:06:55.873Z,101528.22
2022-09-12T10:09:27.158Z,101524.69
2022-09-12T10:11:57.576Z,101525.50
2022-09-12T10:14:37.679Z,101523.53
2022-09-12T10:17:28.684Z,101526.19
2022-09-12T10:20:19.907Z,101527.03
2022-09-12T10:22:49.676Z,101519.84
2022-09-12T10:25:20.146Z,101522.97
2022-09-12T10:27:57.757Z,101511.81
2022-09-12T10:30:29.617Z,101510.09
2022-09-12T10:33:08.449Z,101514.06
2022-09-12T10:35:47.276Z,101512.81
2022-09-12T10:38:23.400Z,101500.97
2022-09-12T10:40:59.796Z,101499.66
2022-09-12T10:43:31.315Z,101490.03
2022-09-12T10:46:21.986Z,101495.59
2022-09-12T10:48:52.717Z,101487.88
2022-09-12T10:51:29.854Z,101486.25
2022-09-12T10:54:00.971Z,101476.47
2022-09-12T10:56:34.945Z,101474.16
2022-09-12T10:59:22.662Z,101474.63
2022-09-12T11:02:01.271Z,101469.69
2022-09-12T11:04:44.691Z,101474.59
2022-09-12T11:07:43.458Z,101469.53
2022-09-12T11:10:27.120Z,101471.19
2022-09-12T11:13:11.644Z,101464.44
2022-09-12T11:16:02.713Z,101466.81
2022-09-12T11:18:54.308Z,101468.63
2022-09-12T11:21:40.215Z,101450.72
2022-09-12T11:24:29.277Z,101456.88
2022-09-12T11:27:22.425Z,101454.44
2022-09-12T11:29:52.483Z,101454.31
2022-09-12T11:32:44.621Z,101448.06
2022-09-12T11:35:24.434Z,101444.72
2022-09-12T11:38:23.440Z,101433.19
2022-09-12T11:40:58.135Z,101440.63
2022-09-12T11:43:41.330Z,101432.81
2022-09-12T11:46:19.317Z,101431.53
2022-09-12T11:48:56.869Z,101430.25
2022-09-12T11:51:30.976Z,101433.91
2022-09-12T11:54:13.956Z,101431.41
2022-09-12T11:56:47.299Z,101431.16
2022-09-12T11:59:32.732Z,101429.00
2022-09-12T12:02:01.937Z,101427.53
2022-09-12T12:04:39.350Z,101430.63
2022-09-12T12:07:12.421Z,101423.09
2022-09-12T12:09:51.349Z,101422.25
2022-09-12T12:12:25.676Z,101416.41
2022-09-12T12:14:55.939Z,101417.75
2022-09-12T12:17:26.985Z,101421.00
2022-09-12T12:20:07.413Z,101417.72
2022-09-12T12:22:37.361Z,101418.34
2022-09-12T12:25:39.974Z,101406.69
2022-09-12T12:28:08.380Z,101404.53
2022-09-12T12:31:04.343Z,101387.59
2022-09-12T12:34:23.507Z,101395.16
2022-09-12T12:36:51.630Z,101392.50
2022-09-12T12:40:05.800Z,101390.72
2022-09-12T12:43:32.930Z,101383.22
2022-09-12T12:46:09.284Z,101385.97
2022-09-12T12:49:10.750Z,101383.09
2022-09-12T12:52:06.036Z,101375.41
2022-09-12T12:54:54.736Z,101376.97
2022-09-12T12:57:47.425Z,101378.94
2022-09-12T13:00:32.264Z,101373.16
2022-09-12T13:03:04.273Z,101373.06
2022-09-12T13:05:40.966Z,101361.97
2022-09-12T13:08:12.180Z,101365.47
2022-09-12T13:10:50.172Z,101361.06
2022-09-12T13:13:27.294Z,101359.66
2022-09-12T13:15:55.727Z,101352.44
2022-09-12T13:18:28.646Z,101348.53
2022-09-12T13:21:09.014Z,101350.41
2022-09-12T13:23:37.568Z,101342.75
2022-09-12T13:26:14.001Z,101346.78
2022-09-12T13:28:43.469Z,101346.88
2022-09-12T13:31:19.107Z,101340.59
2022-09-12T13:33:50.954Z,101338.50
2022-09-12T13:36:48.236Z,101327.34
2022-09-12T13:39:21.528Z,101327.56
2022-09-12T13:42:41.612Z,101316.59
2022-09-12T13:45:16.859Z,101317.84
2022-09-12T13:47:47.378Z,101316.91
2022-09-12T13:50:21.293Z,101312.03
2022-09-12T13:52:54.015Z,101314.00
2022-09-12T13:55:31.475Z,101311.28
2022-09-12T13:58:02.744Z,101311.59
2022-09-12T14:00:34.939Z,101305.78
2022-09-12T14:03:20.995Z,101304.63
2022-09-12T14:05:57.557Z,101296.03
2022-09-12T14:08:26.929Z,101294.84
2022-09-12T14:10:55.413Z,101289.66
2022-09-12T14:13:26.748Z,101287.38
2022-09-12T14:15:59.825Z,101285.22
2022-09-12T14:18:31.130Z,101283.72
2022-09-12T14:21:10.494Z,101278.56
2022-09-12T14:23:42.548Z,101281.38
2022-09-12T14:26:13.847Z,101275.19
2022-09-12T14:28:44.840Z,101269.72
2022-09-12T14:31:25.470Z,101275.53
2022-09-12T14:33:56.006Z,101263.81
2022-09-12T14:36:26.550Z,101263.03
2022-09-12T14:38:57.855Z,101272.97
2022-09-12T14:41:30.754Z,101267.94
2022-09-12T14:44:02.760Z,101265.22
2022-09-12T14:46:36.110Z,101257.28
2022-09-12T14:49:11.298Z,101258.28
2022-09-12T14:51:42.010Z,101249.00
2022-09-12T14:54:39.431Z,101254.84
2022-09-12T14:57:33.307Z,101256.03
2022-09-12T15:00:26.029Z,101253.13
2022-09-12T15:02:56.224Z,101238.84
2022-09-12T15:05:29.478Z,101239.63
2022-09-12T15:08:01.406Z,101237.47
2022-09-12T15:10:33.825Z,101226.03
2022-09-12T15:13:17.312Z,101230.69
2022-09-12T15:15:48.197Z,101224.69
2022-09-12T15:18:18.769Z,101224.19
2022-09-12T15:20:49.301Z,101224.91
2022-09-12T15:23:30.996Z,101207.72
2022-09-12T15:25:59.134Z,101206.34
2022-09-12T15:28:27.853Z,101203.19
2022-09-12T15:30:58.347Z,101199.75
2022-09-12T15:33:27.841Z,101200.28
2022-09-12T15:35:56.014Z,101195.28
2022-09-12T15:38:26.581Z,101207.72
2022-09-12T15:40:55.722Z,101210.03
2022-09-12T15:43:26.293Z,101199.19
2022-09-12T15:45:54.534Z,101195.06
2022-09-12T15:48:27.306Z,101190.69
2022-09-12T15:50:57.595Z,101187.25
2022-09-12T15:53:26.115Z,101200.50
2022-09-12T15:55:54.170Z,101188.13
2022-09-12T15:58:22.213Z,101189.81
2022-09-12T16:00:50.498Z,101193.75
2022-09-12T16:03:24.811Z,101186.22
2022-09-12T16:05:58.140Z,101183.66
2022-09-12T16:08:26.931Z,101181.56
2022-09-12T16:10:58.439Z,101176.38
2022-09-12T16:13:29.285Z,101170.59
2022-09-12T16:15:59.246Z,101158.13
2022-09-12T16:18:27.805Z,101165.94
2022-09-12T16:20:58.325Z,101161.94
2022-09-12T16:23:26.414Z,101157.56
2022-09-12T16:26:02.140Z,101154.09
2022-09-12T16:28:30.735Z,101151.78
2022-09-12T16:31:00.387Z,101151.47
2022-09-12T16:33:29.617Z,101149.25
2022-09-12T16:36:04.370Z,101136.25
2022-09-12T16:38:33.709Z,101138.06
2022-09-12T16:41:02.535Z,101131.84
2022-09-12T16:43:31.962Z,101136.09
2022-09-12T16:46:04.481Z,101129.63
2022-09-12T16:48:33.672Z,101121.75
2022-09-12T16:51:06.867Z,101115.31
2022-09-12T16:53:36.930Z,101108.63
2022-09-12T16:56:05.744Z,101103.13
2022-09-12T16:58:38.482Z,101100.81
2022-09-12T17:01:11.521Z,101109.66
2022-09-12T17:03:40.300Z,101108.91
2022-09-12T17:06:13.906Z,101105.09
2022-09-12T17:08:44.497Z,101102.19
2022-09-12T17:11:15.586Z,101101.09
2022-09-12T17:14:03.907Z,101106.41
2022-09-12T17:16:35.431Z,101104.16
2022-09-12T17:19:04.355Z,101109.94
2022-09-12T17:21:35.095Z,101112.13
2022-09-12T17:24:03.714Z,101115.63
2022-09-12T17:26:31.890Z,101120.78
2022-09-12T17:29:03.195Z,101106.38
2022-09-12T17:31:31.446Z,101095.56
2022-09-12T17:34:00.760Z,101093.34
2022-09-12T17:36:31.865Z,101088.13
2022-09-12T17:39:02.820Z,101103.28
2022-09-12T17:41:32.793Z,101103.19
2022-09-12T17:44:03.529Z,101102.81
2022-09-12T17:46:34.979Z,101099.88
2022-09-12T17:49:05.251Z,101098.47
2022-09-12T17:51:33.881Z,101104.94
2022-09-12T17:54:07.226Z,101094.44
2022-09-12T17:56:37.202Z,101102.53
2022-09-12T17:59:07.317Z,101097.00
2022-09-12T18:01:52.989Z,101098.38
2022-09-12T18:04:21.292Z,101103.28
2022-09-12T18:06:50.146Z,101107.16
2022-09-12T18:09:23.249Z,101092.25
2022-09-12T18:11:52.587Z,101098.69
2022-09-12T18:14:21.117Z,101106.09
2022-09-12T18:16:49.790Z,101107.19
2022-09-12T18:19:18.717Z,101111.91
2022-09-12T18:21:47.429Z,101092.66
2022-09-12T18:24:15.982Z,101092.25
2022-09-12T18:26:45.394Z,101101.78
2022-09-12T18:29:16.795Z,101098.59
2022-09-12T18:31:46.661Z,101098.13
2022-09-12T18:34:15.223Z,101091.28
2022-09-12T18:36:45.796Z,101085.25
2022-09-12T18:39:14.095Z,101068.56
2022-09-12T18:41:42.549Z,101061.63
2022-09-12T18:44:13.169Z,101056.66
2022-09-12T18:46:41.459Z,101052.75
2022-09-12T18:49:10.629Z,101065.81
2022-09-12T18:51:41.630Z,101077.00
2022-09-12T18:54:14.441Z,101077.22
2022-09-12T18:56:43.962Z,101076.47
2022-09-12T18:59:14.861Z,101080.91
2022-09-12T19:01:44.090Z,101072.03
2022-09-12T19:04:13.766Z,101064.16
2022-09-12T19:06:43.485Z,101064.44
2022-09-12T19:09:13.989Z,101067.38
2022-09-12T19:11:48.859Z,101077.41
2022-09-12T19:14:20.560Z,101070.44
2022-09-12T19:16:50.725Z,101063.38
2022-09-12T19:19:19.198Z,101051.91
2022-09-12T19:21:47.824Z,101051.91
2022-09-12T19:24:17.038Z,101043.03
2022-09-12T19:26:45.310Z,101044.91
2022-09-12T19:29:14.664Z,101054.84
2022-09-12T19:31:45.935Z,101046.97
2022-09-12T19:34:15.329Z,101047.03
2022-09-12T19:36:46.289Z,101042.63
2022-09-12T19:39:16.192Z,101042.69
2022-09-12T19:41:44.995Z,101044.41
2022-09-12T19:44:14.119Z,101035.53
2022-09-12T19:46:43.668Z,101037.34
2022-09-12T19:49:13.352Z,101028.38
2022-09-12T19:51:41.783Z,101020.38
2022-09-12T19:54:10.486Z,101015.84
2022-09-12T19:56:38.613Z,101016.63
2022-09-12T19:59:06.704Z,101008.63
2022-09-12T20:01:36.896Z,101019.31
2022-09-12T20:04:07.550Z,101022.78
2022-09-12T20:06:36.700Z,101025.50
2022-09-12T20:09:05.339Z,101028.13
2022-09-12T20:11:33.745Z,101030.94
2022-09-12T20:14:01.992Z,101033.88
2022-09-12T20:16:31.100Z,101019.06
2022-09-12T20:19:01.694Z,101019.97
2022-09-12T20:21:34.097Z,101023.59
2022-09-12T20:24:04.726Z,101020.97
2022-09-12T20:26:33.097Z,101000.63
2022-09-12T20:29:01.662Z,101006.97
2022-09-12T20:31:30.462Z,101006.22
2022-09-12T20:33:58.873Z,101009.19
2022-09-12T20:36:27.450Z,100996.41
2022-09-12T20:38:59.906Z,100997.66
2022-09-12T20:41:30.304Z,100999.78
2022-09-12T20:43:59.209Z,100997.88
2022-09-12T20:46:29.182Z,100997.88
2022-09-12T20:48:59.405Z,101003.28
2022-09-12T20:51:29.657Z,101003.50
2022-09-12T20:54:01.044Z,101013.97
2022-09-12T20:56:31.703Z,101010.09
2022-09-12T20:59:00.987Z,101004.41
2022-09-12T21:01:31.280Z,101006.47
2022-09-12T21:04:01.393Z,100998.69
2022-09-12T21:06:29.679Z,100992.53
2022-09-12T21:09:00.509Z,100992.53
2022-09-12T21:11:29.611Z,100990.78
2022-09-12T21:13:58.414Z,100991.69
2022-09-12T21:16:27.304Z,100998.94
2022-09-12T21:18:57.465Z,100998.97
2022-09-12T21:21:26.490Z,101006.13
2022-09-12T21:23:55.320Z,101006.28
2022-09-12T21:26:24.744Z,101003.84
2022-09-12T21:28:52.815Z,100994.44
2022-09-12T21:31:21.187Z,100979.50
2022-09-12T21:33:49.422Z,100981.22
2022-09-12T21:36:17.602Z,100996.34
2022-09-12T21:38:45.706Z,100997.31
2022-09-12T21:41:15.729Z,100995.59
2022-09-12T21:43:45.469Z,100992.94
2022-09-12T21:46:13.815Z,100993.72
2022-09-12T21:48:43.990Z,100987.53
2022-09-12T21:51:12.141Z,100988.34
2022-09-12T21:53:40.448Z,100988.34
2022-09-12T21:56:10.428Z,100994.66
2022-09-12T21:58:39.263Z,100991.13
2022-09-12T22:01:12.338Z,100993.81
2022-09-12T22:03:42.995Z,100997.31
2022-09-12T22:06:11.121Z,100991.06
2022-09-12T22:08:40.463Z,100988.31
2022-09-12T22:11:10.391Z,100988.19
2022-09-12T22:13:40.051Z,100991.56
2022-09-12T22:16:10.389Z,100991.47
2022-09-12T22:18:39.492Z,100982.47
2022-09-12T22:21:12.283Z,100975.19
2022-09-12T22:23:57.987Z,100973.34
2022-09-12T22:26:27.011Z,100980.38
2022-09-12T22:28:55.356Z,100976.00
2022-09-12T22:31:26.912Z,100971.72
2022-09-12T22:33:57.368Z,100969.22
2022-09-12T22:36:30.432Z,100965.69
2022-09-12T22:38:59.683Z,100970.19
2022-09-12T22:41:28.384Z,100963.13
2022-09-12T22:43:57.516Z,100959.59
2022-09-12T22:46:27.488Z,100955.28
2022-09-12T22:48:55.946Z,100957.13
2022-09-12T22:51:24.025Z,100959.78
2022-09-12T22:53:52.497Z,100959.88
2022-09-12T22:56:20.557Z,100959.78
2022-09-12T22:58:48.714Z,100964.09
2022-09-12T23:01:16.888Z,100959.56
2022-09-12T23:03:46.520Z,100956.78
2022-09-12T23:06:14.680Z,100957.59
2022-09-12T23:08:42.815Z,100951.38
2022-09-12T23:11:14.573Z,100950.41
2022-09-12T23:13:47.305Z,100950.41
2022-09-12T23:16:19.902Z,100959.25
2022-09-12T23:18:49.823Z,100945.16
2022-09-12T23:21:20.763Z,100951.28
2022-09-12T23:23:49.010Z,100948.69
2022-09-12T23:26:19.278Z,100941.63
2022-09-12T23:28:51.100Z,100958.59
2022-09-12T23:31:19.504Z,100970.72
2022-09-12T23:33:50.115Z,100963.31
2022-09-12T23:36:18.154Z,100962.00
2022-09-12T23:38:47.997Z,100969.41
2022-09-12T23:41:17.950Z,100972.31
2022-09-12T23:43:47.009Z,100978.78
2022-09-12T23:46:17.086Z,100964.88
2022-09-12T23:48:45.918Z,100968.50
2022-09-12T23:51:15.939Z,100965.03
2022-09-12T23:53:44.130Z,100966.91
2022-09-12T23:56:12.573Z,100960.84
2022-09-12T23:58:40.618Z,100953.88
